Time;durP1;ratioP1;P1;durP2;ratioP2;P2;SDS_P1;SDS_P2;PMS_P1;PMS_P2;Temp;Humidity;BMP_temperature;BMP_pressure;BME280_temperature;BME280_humidity;BME280_pressure;Samples;Min_cycle;Max_cycle;Signal;HPM_P1;HPM_P2
2023/10/15 00:02:07;;;;;;;10.03;2.70;;;;;;;;;;4953515;28;20899;-63
2023/10/15 00:04:35;;;;;;;3.60;2.00;;;;;;;;;;4953923;28;20443;-63
2023/10/15 00:07:05;;;;;;;4.07;2.13;;;;;;;;;;4954099;28;20794;-63
2023/10/15 00:09:32;;;;;;;3.77;2.10;;;;;;;;;;4952740;28;20423;-63
2023/10/15 00:11:58;;;;;;;3.87;2.20;;;;;;;;;;4953862;28;20426;-63
2023/10/15 00:14:24;;;;;;;2.70;2.10;;;;;;;;;;4953623;28;20484;-63
2023/10/15 00:16:53;;;;;;;4.33;2.40;;;;;;;;;;4954186;28;20558;-63
2023/10/15 00:19:19;;;;;;;2.53;2.33;;;;;;;;;;4954019;28;20443;-63
2023/10/15 00:21:45;;;;;;;3.83;2.30;;;;;;;;;;4954030;28;20451;-63
2023/10/15 00:24:11;;;;;;;2.53;2.30;;;;;;;;;;4953940;28;20415;-63
2023/10/15 00:26:38;;;;;;;5.40;2.17;;;;;;;;;;4953539;28;20498;-63
2023/10/15 00:29:08;;;;;;;2.80;2.10;;;;;;;;;;4953697;28;20790;-63
2023/10/15 00:31:38;;;;;;;2.20;2.10;;;;;;;;;;4953390;28;20443;-63
2023/10/15 00:34:12;;;;;;;5.17;2.40;;;;;;;;;;4953687;28;20506;-63
2023/10/15 00:36:38;;;;;;;3.30;2.20;;;;;;;;;;4953697;28;20475;-63
2023/10/15 00:39:09;;;;;;;6.20;3.10;;;;;;;;;;4953293;28;20522;-63
2023/10/15 00:41:40;;;;;;;2.60;2.40;;;;;;;;;;4955845;28;20411;-63
2023/10/15 00:44:09;;;;;;;4.73;3.13;;;;;;;;;;4957219;28;20399;-63
2023/10/15 00:46:37;;;;;;;16.03;3.00;;;;;;;;;;4957507;28;20890;-63
2023/10/15 00:49:12;;;;;;;3.30;3.00;;;;;;;;;;4957145;28;20415;-63
2023/10/15 00:51:40;;;;;;;3.53;2.87;;;;;;;;;;4957253;28;20423;-63
2023/10/15 00:54:11;;;;;;;3.03;2.20;;;;;;;;;;4955826;28;20466;-63
2023/10/15 00:56:37;;;;;;;5.20;3.20;;;;;;;;;;4956723;28;20489;-63
2023/10/15 00:59:43;;;;;;;5.77;2.90;;;;;;;;;;4956976;28;20438;-63
2023/10/15 01:04:31;;;;;;;5.50;2.43;;;;;;;;;;4956839;28;20809;-63
2023/10/15 01:07:00;;;;;;;4.40;3.03;;;;;;;;;;4956878;28;21090;-63
2023/10/15 01:09:30;;;;;;;3.20;2.90;;;;;;;;;;4956944;28;20419;-62
2023/10/15 01:11:57;;;;;;;7.63;2.93;;;;;;;;;;4956769;28;20439;-62
2023/10/15 01:14:37;;;;;;;2.63;2.43;;;;;;;;;;4956620;28;20412;-62
2023/10/15 01:17:03;;;;;;;3.23;2.93;;;;;;;;;;4956251;28;20466;-63
2023/10/15 01:19:33;;;;;;;2.63;2.43;;;;;;;;;;4956638;28;20411;-63
2023/10/15 01:22:03;;;;;;;3.53;2.50;;;;;;;;;;4956515;28;20526;-63
2023/10/15 01:24:33;;;;;;;4.97;2.90;;;;;;;;;;4956783;28;20392;-62
2023/10/15 01:27:12;;;;;;;2.77;2.53;;;;;;;;;;4956692;28;20937;-63
2023/10/15 01:29:44;;;;;;;5.27;3.27;;;;;;;;;;4956438;28;20551;-63
2023/10/15 01:32:16;;;;;;;5.30;3.10;;;;;;;;;;4956384;28;20445;-63
2023/10/15 01:34:45;;;;;;;4.40;2.80;;;;;;;;;;4956398;28;20531;-63
2023/10/15 01:39:52;;;;;;;5.80;2.70;;;;;;;;;;4955408;29;20415;-63
2023/10/15 01:44:57;;;;;;;3.23;2.60;;;;;;;;;;4956411;28;20525;-63
2023/10/15 01:47:34;;;;;;;6.00;2.33;;;;;;;;;;4956237;28;20419;-62
2023/10/15 01:50:00;;;;;;;2.83;2.17;;;;;;;;;;4956287;28;20443;-63
2023/10/15 01:52:30;;;;;;;4.97;1.83;;;;;;;;;;4954938;28;20420;-63
2023/10/15 01:55:04;;;;;;;3.50;2.20;;;;;;;;;;4955984;28;20439;-63
2023/10/15 01:57:30;;;;;;;7.87;2.90;;;;;;;;;;4955660;28;20467;-63
2023/10/15 02:00:05;;;;;;;3.43;2.57;;;;;;;;;;4956063;28;20445;-63
2023/10/15 02:02:32;;;;;;;5.47;1.93;;;;;;;;;;4956130;28;20906;-63
2023/10/15 02:04:58;;;;;;;4.60;2.30;;;;;;;;;;4956064;28;20411;-63
2023/10/15 02:07:24;;;;;;;5.97;2.70;;;;;;;;;;4955506;28;20419;-63
2023/10/15 02:09:51;;;;;;;5.43;3.20;;;;;;;;;;4955942;28;20958;-63
2023/10/15 02:12:21;;;;;;;3.67;2.57;;;;;;;;;;4955746;28;20444;-63
2023/10/15 02:14:51;;;;;;;6.27;2.50;;;;;;;;;;4955562;28;20498;-63
2023/10/15 02:17:23;;;;;;;4.27;2.30;;;;;;;;;;4955562;28;20641;-62
2023/10/15 02:19:55;;;;;;;7.50;2.77;;;;;;;;;;4955503;28;20419;-63
2023/10/15 02:22:21;;;;;;;5.10;2.90;;;;;;;;;;4955502;28;21015;-63
2023/10/15 02:24:49;;;;;;;4.30;2.80;;;;;;;;;;4955333;28;20443;-63
2023/10/15 02:27:27;;;;;;;2.83;2.63;;;;;;;;;;4955209;28;20428;-63
2023/10/15 02:29:53;;;;;;;3.20;2.93;;;;;;;;;;4955182;28;20910;-63
2023/10/15 02:34:52;;;;;;;2.80;2.47;;;;;;;;;;4955850;28;20400;-63
2023/10/15 02:37:27;;;;;;;3.37;2.27;;;;;;;;;;4955277;28;20473;-63
2023/10/15 02:39:54;;;;;;;4.37;2.30;;;;;;;;;;4955138;28;20510;-62
2023/10/15 02:42:34;;;;;;;4.10;2.90;;;;;;;;;;4955284;28;20419;-62
2023/10/15 02:45:01;;;;;;;10.73;3.40;;;;;;;;;;4955205;28;20429;-63
2023/10/15 02:47:41;;;;;;;5.53;3.40;;;;;;;;;;4954941;28;20450;-63
2023/10/15 02:50:07;;;;;;;4.97;2.57;;;;;;;;;;4955100;28;20443;-63
2023/10/15 02:52:35;;;;;;;3.17;2.70;;;;;;;;;;4954585;28;20427;-62
2023/10/15 02:55:11;;;;;;;3.00;2.80;;;;;;;;;;4954978;28;20816;-63
2023/10/15 02:57:40;;;;;;;3.53;2.90;;;;;;;;;;4954988;28;20525;-63
2023/10/15 03:00:28;;;;;;;4.20;2.70;;;;;;;;;;4954785;28;20427;-63
2023/10/15 03:02:57;;;;;;;2.93;2.73;;;;;;;;;;4954858;28;20455;-63
2023/10/15 03:05:30;;;;;;;15.30;2.30;;;;;;;;;;4954273;28;20486;-63
2023/10/15 03:07:59;;;;;;;2.77;2.30;;;;;;;;;;4954558;28;20451;-63
2023/10/15 03:10:55;;;;;;;5.03;2.40;;;;;;;;;;4954903;28;20415;-63
2023/10/15 03:13:21;;;;;;;9.97;2.70;;;;;;;;;;4954752;28;20521;-63
2023/10/15 03:15:50;;;;;;;4.67;2.70;;;;;;;;;;4954904;28;20523;-63
2023/10/15 03:18:23;;;;;;;2.43;2.23;;;;;;;;;;4954345;28;20558;-63
2023/10/15 03:21:00;;;;;;;5.00;2.60;;;;;;;;;;4954247;28;20418;-63
2023/10/15 03:23:26;;;;;;;11.50;2.40;;;;;;;;;;4954430;28;20518;-63
2023/10/15 03:25:58;;;;;;;6.43;2.60;;;;;;;;;;4954310;28;20942;-63
2023/10/15 03:28:27;;;;;;;6.40;2.70;;;;;;;;;;4954663;28;20420;-63
2023/10/15 03:30:56;;;;;;;5.23;2.60;;;;;;;;;;4954287;28;20426;-63
2023/10/15 03:33:30;;;;;;;3.10;2.70;;;;;;;;;;4954497;28;20415;-63
2023/10/15 03:36:03;;;;;;;7.03;3.00;;;;;;;;;;4954312;28;20427;-63
2023/10/15 03:38:34;;;;;;;5.33;2.93;;;;;;;;;;4954206;28;20578;-63
2023/10/15 03:41:11;;;;;;;4.43;2.40;;;;;;;;;;4954333;28;20840;-63
2023/10/15 03:43:37;;;;;;;4.63;2.73;;;;;;;;;;4954149;28;20458;-64
2023/10/15 03:46:17;;;;;;;7.60;2.60;;;;;;;;;;4954200;28;20436;-64
2023/10/15 03:48:50;;;;;;;11.63;2.53;;;;;;;;;;4954299;28;20447;-63
2023/10/15 03:51:20;;;;;;;5.03;2.40;;;;;;;;;;4954269;28;20422;-63
2023/10/15 03:53:49;;;;;;;2.47;2.00;;;;;;;;;;4954150;28;20423;-63
2023/10/15 03:56:17;;;;;;;7.53;2.10;;;;;;;;;;4954131;28;20954;-63
2023/10/15 03:58:46;;;;;;;11.87;2.40;;;;;;;;;;4953675;28;20446;-63
2023/10/15 04:03:43;;;;;;;9.13;2.50;;;;;;;;;;4953805;28;20449;-63
2023/10/15 04:06:09;;;;;;;4.77;2.80;;;;;;;;;;4954074;28;20419;-63
2023/10/15 04:08:37;;;;;;;2.43;2.33;;;;;;;;;;4953866;28;20522;-63
2023/10/15 04:11:08;;;;;;;9.10;2.60;;;;;;;;;;4953911;28;20523;-63
2023/10/15 04:13:35;;;;;;;3.03;2.83;;;;;;;;;;4953918;28;20907;-64
2023/10/15 04:16:01;;;;;;;8.13;2.20;;;;;;;;;;4955322;28;20452;-63
2023/10/15 04:18:29;;;;;;;13.70;2.70;;;;;;;;;;4957828;28;20561;-63
2023/10/15 04:20:56;;;;;;;10.03;2.77;;;;;;;;;;4957889;28;20898;-64
2023/10/15 04:23:31;;;;;;;4.30;2.50;;;;;;;;;;4957738;28;20429;-62
2023/10/15 04:26:22;;;;;;;2.47;2.27;;;;;;;;;;4957559;28;20419;-62
2023/10/15 04:28:52;;;;;;;2.27;2.17;;;;;;;;;;4957750;28;20426;-61
2023/10/15 04:31:22;;;;;;;2.20;2.10;;;;;;;;;;4957370;28;20443;-62
2023/10/15 04:33:51;;;;;;;2.63;2.40;;;;;;;;;;4957496;28;20426;-61
2023/10/15 04:36:20;;;;;;;4.40;2.47;;;;;;;;;;4957194;28;20530;-61
2023/10/15 04:38:46;;;;;;;4.43;2.30;;;;;;;;;;4957410;28;20416;-62
2023/10/15 04:41:21;;;;;;;6.67;2.73;;;;;;;;;;4957579;28;20907;-62
2023/10/15 04:43:47;;;;;;;5.63;3.00;;;;;;;;;;4957111;28;20419;-62
2023/10/15 04:46:25;;;;;;;4.17;2.70;;;;;;;;;;4957333;28;20431;-62
2023/10/15 04:48:51;;;;;;;5.90;2.73;;;;;;;;;;4957249;28;20438;-61
2023/10/15 04:51:18;;;;;;;7.20;2.90;;;;;;;;;;4957299;28;20415;-61
2023/10/15 04:53:44;;;;;;;5.80;2.70;;;;;;;;;;4957317;28;20439;-61
2023/10/15 04:56:12;;;;;;;3.13;2.80;;;;;;;;;;4957496;28;20418;-61
2023/10/15 04:58:39;;;;;;;5.30;2.87;;;;;;;;;;4957029;28;20506;-61
2023/10/15 05:01:05;;;;;;;6.63;2.70;;;;;;;;;;4956914;28;20459;-61
2023/10/15 05:03:31;;;;;;;2.40;2.30;;;;;;;;;;4956899;28;20430;-61
2023/10/15 05:06:06;;;;;;;5.80;2.60;;;;;;;;;;4956946;28;20419;-61
2023/10/15 05:08:35;;;;;;;9.73;2.70;;;;;;;;;;4956912;28;20993;-61
2023/10/15 05:11:01;;;;;;;3.60;2.53;;;;;;;;;;4956780;28;20455;-61
2023/10/15 05:13:27;;;;;;;3.47;2.60;;;;;;;;;;4957003;28;20510;-61
2023/10/15 05:15:53;;;;;;;2.93;2.00;;;;;;;;;;4956779;28;20415;-61
2023/10/15 05:18:19;;;;;;;2.83;2.73;;;;;;;;;;4956778;28;20482;-61
2023/10/15 05:20:50;;;;;;;2.60;2.40;;;;;;;;;;4956664;28;20438;-61
2023/10/15 05:23:19;;;;;;;5.30;2.33;;;;;;;;;;4956257;28;20470;-61
2023/10/15 05:25:45;;;;;;;3.73;2.77;;;;;;;;;;4956830;28;20510;-60
2023/10/15 05:28:17;;;;;;;5.67;2.37;;;;;;;;;;4956581;28;20498;-60
2023/10/15 05:30:43;;;;;;;3.90;2.30;;;;;;;;;;4956428;28;20485;-61
2023/10/15 05:33:09;;;;;;;4.53;1.83;;;;;;;;;;4956517;28;20443;-61
2023/10/15 05:35:37;;;;;;;3.30;1.57;;;;;;;;;;4956420;28;20438;-61
2023/10/15 05:38:07;;;;;;;1.80;1.70;;;;;;;;;;4956585;28;20482;-61
2023/10/15 05:40:33;;;;;;;1.50;1.20;;;;;;;;;;4956926;28;20405;-61
2023/10/15 05:43:02;;;;;;;2.90;1.20;;;;;;;;;;4956534;29;20434;-61
2023/10/15 05:45:28;;;;;;;2.97;0.90;;;;;;;;;;4956635;28;20428;-61
2023/10/15 05:47:54;;;;;;;3.47;1.30;;;;;;;;;;4957003;28;20435;-61
2023/10/15 05:50:20;;;;;;;2.17;0.97;;;;;;;;;;4956681;28;20412;-61
2023/10/15 05:52:46;;;;;;;4.60;0.90;;;;;;;;;;4955400;29;20454;-61
2023/10/15 05:55:12;;;;;;;2.30;1.03;;;;;;;;;;4954457;28;20883;-61
2023/10/15 05:57:38;;;;;;;1.03;0.93;;;;;;;;;;4955776;28;20561;-61
2023/10/15 06:00:26;;;;;;;1.83;1.10;;;;;;;;;;4956191;28;20415;-61
2023/10/15 06:02:53;;;;;;;3.23;1.50;;;;;;;;;;4956206;28;20647;-61
2023/10/15 06:05:22;;;;;;;2.83;1.20;;;;;;;;;;4956345;28;20497;-61
2023/10/15 06:07:48;;;;;;;2.10;1.90;;;;;;;;;;4956052;28;20418;-61
2023/10/15 06:10:17;;;;;;;1.27;1.20;;;;;;;;;;4956264;28;20411;-61
2023/10/15 06:12:43;;;;;;;2.33;1.57;;;;;;;;;;4956027;28;20454;-61
2023/10/15 06:15:11;;;;;;;2.27;2.00;;;;;;;;;;4955984;28;20427;-61
2023/10/15 06:17:38;;;;;;;2.60;1.87;;;;;;;;;;4955818;28;20474;-61
2023/10/15 06:20:13;;;;;;;1.63;1.53;;;;;;;;;;4955740;28;20892;-61
2023/10/15 06:22:41;;;;;;;9.03;5.00;;;;;;;;;;4955952;28;20431;-61
2023/10/15 06:25:14;;;;;;;16.63;14.93;;;;;;;;;;4956022;28;20412;-61
2023/10/15 06:27:40;;;;;;;3.60;2.47;;;;;;;;;;4956013;28;20440;-61
2023/10/15 06:30:16;;;;;;;2.40;2.27;;;;;;;;;;4956066;28;20399;-61
2023/10/15 06:32:43;;;;;;;7.80;2.00;;;;;;;;;;4954523;28;20868;-61
2023/10/15 06:35:10;;;;;;;1.90;1.53;;;;;;;;;;4955764;28;20895;-61
2023/10/15 06:37:38;;;;;;;4.67;3.30;;;;;;;;;;4955624;28;20487;-61
2023/10/15 06:40:09;;;;;;;6.13;3.87;;;;;;;;;;4955302;28;20431;-61
2023/10/15 06:42:35;;;;;;;2.70;2.50;;;;;;;;;;4955555;28;20435;-61
2023/10/15 06:45:06;;;;;;;2.93;1.90;;;;;;;;;;4955816;28;20398;-61
2023/10/15 06:47:35;;;;;;;3.60;1.77;;;;;;;;;;4955438;28;20434;-61
2023/10/15 06:50:05;;;;;;;6.73;2.33;;;;;;;;;;4955747;28;20486;-61
2023/10/15 06:52:32;;;;;;;1.93;1.93;;;;;;;;;;4955383;28;20494;-60
2023/10/15 06:54:58;;;;;;;4.30;2.10;;;;;;;;;;4955314;28;20781;-61
2023/10/15 06:57:23;;;;;;;5.40;2.27;;;;;;;;;;4955266;28;20946;-61
2023/10/15 06:59:52;;;;;;;9.87;2.37;;;;;;;;;;4955471;28;20466;-61
2023/10/15 07:02:18;;;;;;;3.77;2.27;;;;;;;;;;4955084;28;20506;-61
2023/10/15 07:04:46;;;;;;;5.30;2.40;;;;;;;;;;4955074;28;20455;-61
2023/10/15 07:07:14;;;;;;;4.73;2.30;;;;;;;;;;4955216;28;20420;-61
2023/10/15 07:09:40;;;;;;;8.93;2.90;;;;;;;;;;4955294;28;20787;-61
2023/10/15 07:12:06;;;;;;;3.27;2.50;;;;;;;;;;4954889;28;20428;-61
2023/10/15 07:14:35;;;;;;;4.47;2.50;;;;;;;;;;4955023;28;20899;-61
2023/10/15 07:17:03;;;;;;;2.47;2.27;;;;;;;;;;4954954;28;20605;-61
2023/10/15 07:19:29;;;;;;;5.33;2.40;;;;;;;;;;4954696;28;20422;-61
2023/10/15 07:21:56;;;;;;;2.83;2.33;;;;;;;;;;4954534;28;20424;-60
2023/10/15 07:24:22;;;;;;;16.47;12.20;;;;;;;;;;4955035;28;20439;-61
2023/10/15 07:26:48;;;;;;;11.57;5.90;;;;;;;;;;4954836;28;20415;-61
2023/10/15 07:29:14;;;;;;;2.53;2.33;;;;;;;;;;4954899;28;20543;-61
2023/10/15 07:31:40;;;;;;;3.40;2.20;;;;;;;;;;4954665;28;20962;-61
2023/10/15 07:34:08;;;;;;;4.90;2.70;;;;;;;;;;4954723;28;20530;-61
2023/10/15 07:36:35;;;;;;;4.07;2.90;;;;;;;;;;4954228;28;20842;-61
2023/10/15 07:39:01;;;;;;;7.10;3.07;;;;;;;;;;4954343;28;20511;-61
2023/10/15 07:41:29;;;;;;;4.60;3.53;;;;;;;;;;4954733;28;20466;-61
2023/10/15 07:43:56;;;;;;;11.03;3.20;;;;;;;;;;4954666;28;20481;-61
2023/10/15 07:46:24;;;;;;;8.83;3.70;;;;;;;;;;4953081;28;20435;-61
2023/10/15 07:48:51;;;;;;;3.30;3.10;;;;;;;;;;4954059;28;20428;-61
2023/10/15 07:51:18;;;;;;;3.67;3.30;;;;;;;;;;4953943;28;20435;-60
2023/10/15 07:53:44;;;;;;;5.30;3.00;;;;;;;;;;4954287;28;20486;-61
2023/10/15 07:56:14;;;;;;;12.43;2.97;;;;;;;;;;4954062;28;20477;-61
2023/10/15 07:58:44;;;;;;;4.13;3.30;;;;;;;;;;4954391;28;20486;-61
2023/10/15 08:01:15;;;;;;;11.87;6.27;;;;;;;;;;4954571;28;20420;-61
2023/10/15 08:03:41;;;;;;;5.57;3.40;;;;;;;;;;4954061;28;20462;-61
2023/10/15 08:06:07;;;;;;;4.60;4.00;;;;;;;;;;4954141;28;20412;-61
2023/10/15 08:08:35;;;;;;;6.27;3.33;;;;;;;;;;4954281;28;20423;-61
2023/10/15 08:11:02;;;;;;;8.30;2.90;;;;;;;;;;4953226;28;20869;-61
2023/10/15 08:13:28;;;;;;;10.57;3.40;;;;;;;;;;4954108;28;20447;-61
2023/10/15 08:15:57;;;;;;;10.63;2.93;;;;;;;;;;4954258;28;20779;-65
2023/10/15 08:18:26;;;;;;;3.67;3.40;;;;;;;;;;4954198;28;20474;-61
2023/10/15 08:20:54;;;;;;;10.10;3.20;;;;;;;;;;4954046;28;20458;-61
2023/10/15 08:23:23;;;;;;;7.70;3.23;;;;;;;;;;4954042;28;20411;-61
2023/10/15 08:25:49;;;;;;;4.30;2.73;;;;;;;;;;4953950;28;20414;-61
2023/10/15 08:28:15;;;;;;;4.30;2.73;;;;;;;;;;4954106;28;20490;-61
2023/10/15 08:30:41;;;;;;;3.27;3.03;;;;;;;;;;4954113;28;20518;-61
2023/10/15 08:33:12;;;;;;;10.70;7.13;;;;;;;;;;4954104;28;20419;-61
2023/10/15 08:35:38;;;;;;;3.83;2.80;;;;;;;;;;4954203;28;20757;-61
2023/10/15 08:38:07;;;;;;;5.80;2.70;;;;;;;;;;4953998;28;20467;-61
2023/10/15 08:40:37;;;;;;;6.10;2.93;;;;;;;;;;4953923;28;20418;-61
2023/10/15 08:43:08;;;;;;;3.17;2.87;;;;;;;;;;4953188;28;20923;-61
2023/10/15 08:45:34;;;;;;;7.80;4.83;;;;;;;;;;4953648;28;20424;-61
2023/10/15 08:48:01;;;;;;;6.07;3.13;;;;;;;;;;4954135;28;20450;-61
2023/10/15 08:50:29;;;;;;;5.63;3.10;;;;;;;;;;4954176;28;20923;-61
2023/10/15 08:52:56;;;;;;;2.60;2.40;;;;;;;;;;4953824;28;20798;-61
2023/10/15 08:55:25;;;;;;;4.97;2.13;;;;;;;;;;4954104;28;20441;-61
2023/10/15 08:57:54;;;;;;;3.43;2.30;;;;;;;;;;4953594;28;20484;-61
2023/10/15 09:00:28;;;;;;;2.10;2.00;;;;;;;;;;4953912;28;20466;-62
2023/10/15 09:02:56;;;;;;;6.23;2.10;;;;;;;;;;4956415;28;20515;-62
2023/10/15 09:05:24;;;;;;;7.50;2.80;;;;;;;;;;4957208;28;20499;-62
2023/10/15 09:07:56;;;;;;;2.63;2.30;;;;;;;;;;4957254;28;20453;-62
2023/10/15 09:10:23;;;;;;;4.27;2.10;;;;;;;;;;4956789;28;20926;-62
2023/10/15 09:12:52;;;;;;;5.00;2.30;;;;;;;;;;4957342;28;20497;-62
2023/10/15 09:15:19;;;;;;;4.70;2.13;;;;;;;;;;4957047;28;20467;-62
2023/10/15 09:17:52;;;;;;;4.20;2.20;;;;;;;;;;4956815;28;20475;-62
2023/10/15 09:20:26;;;;;;;2.30;1.80;;;;;;;;;;4956913;28;20996;-62
2023/10/15 09:22:52;;;;;;;4.77;2.27;;;;;;;;;;4956643;28;20411;-62
2023/10/15 09:25:18;;;;;;;2.83;1.90;;;;;;;;;;4956678;28;20886;-62
2023/10/15 09:27:47;;;;;;;1.80;1.70;;;;;;;;;;4956733;28;20434;-62
2023/10/15 09:30:20;;;;;;;2.10;2.00;;;;;;;;;;4956466;28;20461;-62
2023/10/15 09:32:48;;;;;;;4.43;1.50;;;;;;;;;;4956602;28;20429;-62
2023/10/15 09:35:15;;;;;;;2.73;1.60;;;;;;;;;;4956901;28;20500;-62
2023/10/15 09:37:41;;;;;;;9.50;8.57;;;;;;;;;;4956395;28;20535;-62
2023/10/15 09:40:18;;;;;;;7.10;1.57;;;;;;;;;;4956704;28;20438;-62
2023/10/15 09:42:45;;;;;;;3.60;1.73;;;;;;;;;;4956344;28;20424;-61
2023/10/15 09:45:15;;;;;;;4.20;2.30;;;;;;;;;;4956510;28;20535;-62
2023/10/15 09:47:48;;;;;;;3.77;2.03;;;;;;;;;;4956664;28;20420;-61
2023/10/15 09:50:16;;;;;;;5.17;2.20;;;;;;;;;;4956098;28;20418;-62
2023/10/15 09:52:43;;;;;;;3.23;1.70;;;;;;;;;;4956322;28;20944;-60
2023/10/15 09:55:11;;;;;;;2.53;1.90;;;;;;;;;;4956362;28;20417;-61
2023/10/15 09:57:39;;;;;;;3.80;1.60;;;;;;;;;;4956335;28;20527;-62
2023/10/15 10:00:14;;;;;;;2.10;1.53;;;;;;;;;;4956080;28;20833;-62
2023/10/15 10:02:44;;;;;;;1.27;1.17;;;;;;;;;;4956146;28;20461;-62
2023/10/15 10:05:44;;;;;;;3.27;1.70;;;;;;;;;;4956347;28;20651;-62
2023/10/15 10:08:20;;;;;;;2.43;1.20;;;;;;;;;;4956506;28;20502;-61
2023/10/15 10:11:23;;;;;;;2.70;1.63;;;;;;;;;;4955829;28;20508;-62
2023/10/15 10:14:07;;;;;;;1.67;1.20;;;;;;;;;;4952857;28;20439;-61
2023/10/15 10:16:34;;;;;;;3.87;1.67;;;;;;;;;;4955736;29;20791;-61
2023/10/15 10:19:03;;;;;;;2.10;1.70;;;;;;;;;;4956193;28;20576;-61
2023/10/15 10:21:30;;;;;;;2.83;1.47;;;;;;;;;;4956237;28;20490;-61
2023/10/15 10:23:58;;;;;;;3.57;1.30;;;;;;;;;;4956137;28;20430;-61
2023/10/15 10:26:27;;;;;;;2.07;1.53;;;;;;;;;;4956035;28;20446;-61
2023/10/15 10:28:56;;;;;;;4.40;1.60;;;;;;;;;;4955585;28;20434;-61
2023/10/15 10:31:22;;;;;;;1.73;1.60;;;;;;;;;;4954557;28;20491;-61
2023/10/15 10:33:49;;;;;;;5.77;1.50;;;;;;;;;;4955770;28;20434;-61
2023/10/15 10:36:27;;;;;;;21.57;14.37;;;;;;;;;;4955361;28;20686;-61
2023/10/15 10:39:17;;;;;;;3.77;1.87;;;;;;;;;;4955445;28;20886;-61
2023/10/15 10:41:50;;;;;;;3.23;1.40;;;;;;;;;;4955622;28;20785;-61
2023/10/15 10:44:22;;;;;;;2.50;1.80;;;;;;;;;;4955374;28;20417;-60
2023/10/15 10:46:48;;;;;;;2.50;1.30;;;;;;;;;;4955516;28;20434;-61
2023/10/15 10:49:17;;;;;;;4.17;1.67;;;;;;;;;;4955110;28;20436;-61
2023/10/15 10:52:01;;;;;;;2.37;1.17;;;;;;;;;;4955541;28;20440;-61
2023/10/15 10:54:29;;;;;;;3.70;1.47;;;;;;;;;;4955390;28;20414;-61
2023/10/15 10:56:58;;;;;;;2.80;1.50;;;;;;;;;;4955337;28;20464;-61
2023/10/15 10:59:24;;;;;;;2.13;1.53;;;;;;;;;;4955139;28;20415;-62
2023/10/15 11:01:50;;;;;;;1.40;1.27;;;;;;;;;;4955390;28;20426;-62
2023/10/15 11:04:18;;;;;;;3.00;1.20;;;;;;;;;;4954992;28;20417;-62
2023/10/15 11:06:48;;;;;;;1.50;1.40;;;;;;;;;;4955119;28;20414;-61
2023/10/15 11:09:15;;;;;;;1.20;1.10;;;;;;;;;;4954461;28;20520;-61
2023/10/15 11:11:47;;;;;;;1.20;1.00;;;;;;;;;;4955093;28;20439;-61
2023/10/15 11:14:16;;;;;;;1.43;0.90;;;;;;;;;;4954938;28;20414;-62
2023/10/15 11:16:43;;;;;;;1.30;1.20;;;;;;;;;;4954861;28;20918;-61
2023/10/15 11:19:22;;;;;;;8.80;7.00;;;;;;;;;;4955033;28;20412;-61
2023/10/15 11:21:49;;;;;;;2.90;1.30;;;;;;;;;;4954902;28;20458;-62
2023/10/15 11:24:18;;;;;;;1.83;1.20;;;;;;;;;;4954781;28;20449;-61
2023/10/15 11:26:44;;;;;;;2.47;1.30;;;;;;;;;;4953585;28;20439;-62
2023/10/15 11:29:14;;;;;;;3.13;1.50;;;;;;;;;;4954247;28;20424;-61
2023/10/15 11:31:44;;;;;;;4.23;2.83;;;;;;;;;;4954405;28;20444;-62
2023/10/15 11:34:14;;;;;;;1.37;1.27;;;;;;;;;;4954387;28;20432;-62
2023/10/15 11:36:43;;;;;;;1.90;1.40;;;;;;;;;;4955691;28;20930;-62
2023/10/15 11:39:17;;;;;;;4.17;1.33;;;;;;;;;;4955120;28;20451;-61
2023/10/15 11:41:44;;;;;;;1.23;1.23;;;;;;;;;;4954627;28;20419;-61
2023/10/15 11:44:10;;;;;;;3.67;1.43;;;;;;;;;;4954757;28;20514;-62
2023/10/15 11:46:36;;;;;;;1.50;1.40;;;;;;;;;;4954325;28;20443;-61
2023/10/15 11:49:02;;;;;;;1.60;1.50;;;;;;;;;;4953428;28;20875;-61
2023/10/15 11:51:29;;;;;;;1.70;1.60;;;;;;;;;;4954491;28;20918;-61
2023/10/15 11:54:02;;;;;;;1.50;1.40;;;;;;;;;;4954342;28;20436;-62
2023/10/15 11:56:32;;;;;;;1.57;1.30;;;;;;;;;;4952306;28;20444;-61
2023/10/15 11:59:00;;;;;;;2.17;1.33;;;;;;;;;;4954419;28;20435;-62
2023/10/15 12:01:29;;;;;;;1.10;1.03;;;;;;;;;;4953140;28;20507;-62
2023/10/15 12:03:56;;;;;;;1.20;1.10;;;;;;;;;;4954249;28;20935;-61
2023/10/15 12:06:22;;;;;;;1.00;1.00;;;;;;;;;;4954390;28;20450;-62
2023/10/15 12:08:52;;;;;;;1.27;1.13;;;;;;;;;;4954457;28;20483;-62
2023/10/15 12:11:22;;;;;;;1.20;1.20;;;;;;;;;;4954571;28;20464;-62
2023/10/15 12:13:48;;;;;;;10.37;1.93;;;;;;;;;;4954362;28;20428;-62
2023/10/15 12:16:14;;;;;;;2.87;1.33;;;;;;;;;;4954097;28;20916;-62
2023/10/15 12:18:43;;;;;;;1.33;1.20;;;;;;;;;;4952850;28;20479;-62
2023/10/15 12:21:09;;;;;;;1.97;1.20;;;;;;;;;;4953022;28;20440;-61
2023/10/15 12:23:35;;;;;;;1.17;1.17;;;;;;;;;;4954140;28;20512;-62
2023/10/15 12:26:03;;;;;;;1.10;1.10;;;;;;;;;;4954052;28;20545;-61
2023/10/15 12:28:29;;;;;;;1.37;1.23;;;;;;;;;;4954145;28;20495;-61
2023/10/15 12:30:55;;;;;;;11.43;9.70;;;;;;;;;;4952477;29;20528;-62
2023/10/15 12:33:21;;;;;;;2.20;1.40;;;;;;;;;;4954006;28;20420;-61
2023/10/15 12:35:50;;;;;;;1.33;1.10;;;;;;;;;;4954166;28;20500;-62
2023/10/15 12:38:26;;;;;;;4.30;1.10;;;;;;;;;;4957038;28;20904;-62
2023/10/15 12:40:55;;;;;;;0.97;0.97;;;;;;;;;;4957743;28;20444;-61
2023/10/15 12:43:21;;;;;;;1.63;1.30;;;;;;;;;;4956342;28;20421;-62
2023/10/15 12:45:52;;;;;;;1.47;1.27;;;;;;;;;;4957911;28;20436;-62
2023/10/15 12:48:18;;;;;;;0.93;0.93;;;;;;;;;;4957768;28;20415;-61
2023/10/15 12:50:44;;;;;;;1.77;0.90;;;;;;;;;;4957392;28;20424;-61
2023/10/15 12:53:13;;;;;;;1.20;1.10;;;;;;;;;;4957776;28;20771;-61
2023/10/15 12:55:39;;;;;;;1.17;1.17;;;;;;;;;;4957382;28;20439;-61
2023/10/15 12:58:05;;;;;;;3.50;1.30;;;;;;;;;;4956181;29;21043;-61
2023/10/15 13:00:39;;;;;;;1.37;1.23;;;;;;;;;;4957092;28;20438;-61
2023/10/15 13:03:05;;;;;;;2.17;1.50;;;;;;;;;;4957346;28;20534;-61
2023/10/15 13:05:34;;;;;;;0.80;0.80;;;;;;;;;;4957537;28;20459;-61
2023/10/15 13:08:03;;;;;;;1.10;1.00;;;;;;;;;;4957080;28;20421;-62
2023/10/15 13:10:29;;;;;;;1.10;1.10;;;;;;;;;;4957184;28;20454;-61
2023/10/15 13:12:59;;;;;;;2.50;1.27;;;;;;;;;;4957287;28;20462;-61
2023/10/15 13:15:25;;;;;;;1.00;1.00;;;;;;;;;;4956880;28;20427;-61
2023/10/15 13:17:55;;;;;;;1.70;1.60;;;;;;;;;;4956970;28;20475;-61
2023/10/15 13:20:23;;;;;;;2.90;1.10;;;;;;;;;;4957046;28;20422;-61
2023/10/15 13:22:49;;;;;;;2.10;1.60;;;;;;;;;;4955790;28;20453;-61
2023/10/15 13:25:18;;;;;;;1.47;1.33;;;;;;;;;;4955853;28;20819;-61
2023/10/15 13:27:47;;;;;;;1.87;1.70;;;;;;;;;;4956994;28;20475;-61
2023/10/15 13:30:15;;;;;;;3.00;2.80;;;;;;;;;;4955866;28;20450;-61
2023/10/15 13:32:41;;;;;;;1.50;1.33;;;;;;;;;;4957046;28;20510;-61
2023/10/15 13:35:10;;;;;;;1.17;1.07;;;;;;;;;;4956556;28;20426;-61
2023/10/15 13:37:36;;;;;;;1.60;1.33;;;;;;;;;;4956535;28;20483;-61
2023/10/15 13:40:02;;;;;;;1.90;1.80;;;;;;;;;;4956219;28;20408;-62
2023/10/15 13:42:29;;;;;;;1.07;1.07;;;;;;;;;;4956355;28;20547;-62
2023/10/15 13:44:57;;;;;;;1.90;1.57;;;;;;;;;;4956468;28;20474;-62
2023/10/15 13:47:23;;;;;;;1.17;1.17;;;;;;;;;;4955972;28;20423;-61
2023/10/15 13:49:51;;;;;;;3.27;1.60;;;;;;;;;;4955498;28;20443;-61
2023/10/15 13:52:17;;;;;;;2.13;1.50;;;;;;;;;;4956444;28;20428;-62
2023/10/15 13:54:43;;;;;;;1.63;1.13;;;;;;;;;;4956512;28;20925;-61
2023/10/15 13:57:09;;;;;;;2.80;1.07;;;;;;;;;;4956618;28;20474;-62
2023/10/15 13:59:37;;;;;;;1.60;1.50;;;;;;;;;;4956087;28;20412;-61
2023/10/15 14:02:06;;;;;;;1.50;1.10;;;;;;;;;;4956279;28;20827;-61
2023/10/15 14:04:33;;;;;;;1.47;1.37;;;;;;;;;;4956110;28;20427;-61
2023/10/15 14:06:59;;;;;;;1.63;0.80;;;;;;;;;;4956979;28;20439;-61
2023/10/15 14:09:27;;;;;;;1.20;1.10;;;;;;;;;;4955772;28;20445;-61
2023/10/15 14:11:54;;;;;;;0.90;0.90;;;;;;;;;;4956437;28;20439;-61
2023/10/15 14:14:20;;;;;;;1.00;0.90;;;;;;;;;;4956027;28;20442;-61
2023/10/15 14:16:49;;;;;;;1.90;1.23;;;;;;;;;;4955901;28;20513;-62
2023/10/15 14:19:17;;;;;;;0.93;0.93;;;;;;;;;;4956121;28;20418;-60
2023/10/15 14:21:46;;;;;;;1.40;1.20;;;;;;;;;;4955824;28;20442;-60
2023/10/15 14:24:14;;;;;;;4.20;1.50;;;;;;;;;;4954794;28;20429;-60
2023/10/15 14:26:40;;;;;;;3.00;1.10;;;;;;;;;;4955558;28;20430;-61
2023/10/15 14:29:07;;;;;;;2.33;0.93;;;;;;;;;;4955796;28;20440;-61
2023/10/15 14:31:33;;;;;;;1.43;1.20;;;;;;;;;;4955760;28;20422;-61
2023/10/15 14:33:59;;;;;;;3.53;3.30;;;;;;;;;;4955542;28;20430;-61
2023/10/15 14:36:27;;;;;;;1.80;1.10;;;;;;;;;;4955479;28;20491;-61
2023/10/15 14:38:55;;;;;;;1.50;1.23;;;;;;;;;;4955202;28;20969;-61
2023/10/15 14:41:21;;;;;;;1.43;1.00;;;;;;;;;;4954202;28;20978;-60
2023/10/15 14:43:49;;;;;;;1.53;1.23;;;;;;;;;;4955449;28;20453;-61
2023/10/15 14:46:19;;;;;;;1.07;0.97;;;;;;;;;;4955389;28;20446;-61
2023/10/15 14:48:45;;;;;;;0.97;0.90;;;;;;;;;;4955305;28;20506;-61
2023/10/15 14:51:13;;;;;;;2.83;1.67;;;;;;;;;;4955393;28;20517;-61
2023/10/15 14:53:39;;;;;;;1.40;1.30;;;;;;;;;;4955803;28;20855;-61
2023/10/15 14:56:05;;;;;;;5.50;1.03;;;;;;;;;;4955170;28;20433;-61
2023/10/15 14:58:31;;;;;;;2.40;0.87;;;;;;;;;;4953812;28;20576;-61
2023/10/15 15:00:59;;;;;;;2.50;1.20;;;;;;;;;;4954509;28;20972;-61
2023/10/15 15:03:27;;;;;;;1.10;1.10;;;;;;;;;;4953766;29;20473;-61
2023/10/15 15:05:55;;;;;;;2.10;1.20;;;;;;;;;;4955151;28;20416;-61
2023/10/15 15:08:21;;;;;;;1.47;0.90;;;;;;;;;;4955304;28;20455;-61